Saturday, November 18, 2017, 11:58 AM GMT
Back to Local

CYBG, Bagotville, Que.

Location: , , Canada Lat: 48.333
Local Time: 11:58 AM GMT (11:58 GMT) Lon: -71
Time Zone: GMT Elev: 521 ft

Show me the last for .
Show Coded

Time T Td Feel RH Dir Speed Gust Alt SLP Vis Weather Sky Remarks
2017-11-18 11:00 12 7 4 78 360° 5 - 29.94 29.98 10 -SHSN OVC010 None
2017-11-18 10:00 14 7 6 72 330° 5 - 29.95 29.98 10 -SHSN OVC010 None
2017-11-18 09:00 14 9 5 78 330° 6 - 29.97 30.00 10 -SHSN OVC010 None
2017-11-18 08:00 16 9 7 72 310° 6 - 29.98 30.02 10 -SHSN OVC011 None
2017-11-18 07:00 16 10 3 78 290° 12 - 29.97 30.01 10 -SHSN OVC011 None
2017-11-18 06:30 16 9 3 72 300° 12 - 29.97 30.01 10 -SHSN OVC015 None
2017-11-18 06:00 16 10 3 78 300° 12 - 29.97 30.00 10 -SHSN OVC015 None
2017-11-18 05:00 16 10 3 78 290° 12 - 29.97 30.01 10 -SHSN OVC016 None
2017-11-18 04:00 16 10 2 78 290° 13 - 29.97 30.01 6 -SHSN OVC016 None
2017-11-18 03:00 18 10 2 72 290° 17 - 29.98 30.02 6 -SHSN OVC018 None
2017-11-18 02:00 18 10 2 72 290° 17 - 29.98 30.02 15 -SHSN OVC019 None
2017-11-18 01:00 18 12 3 78 290° 16 - 29.98 30.01 10 -SHSN OVC019 None
2017-11-18 00:00 19 12 4 73 280° 20 - 29.98 30.01 6 -SHSN OVC018 None
2017-11-17 23:00 19 12 4 73 280° 18 - 29.95 29.99 6 -SHSN OVC018 None
2017-11-17 22:00 19 12 2 73 290° 18 24 29.94 29.98 10 -SHSN OVC019 None
2017-11-17 21:00 19 12 1 73 180° 20 29 29.95 29.98 10 -SHSN DRSN OVC020 None
2017-11-17 20:00 19 14 1 79 290° 22 28 29.93 29.96 10 -SHSN OVC019 None
2017-11-17 19:00 19 14 1 79 280° 23 29 29.91 29.94 15 -SHSN OVC019 None
2017-11-17 18:00 19 14 1 79 280° 18 30 29.89 29.92 10 -SHSN DRSN OVC016 None
2017-11-17 17:17 19 16 0 85 280° 22 31 29.89 29.92 15 -SHSN DRSN OVC016 None
2017-11-17 17:00 21 16 3 79 290° 23 30 29.89 29.92 15 DRSN OVC015 None
2017-11-17 16:00 21 14 3 73 290° 20 31 29.89 29.92 15 DRSN OVC015 None
2017-11-17 15:00 21 16 3 79 280° 24 31 29.90 29.93 15 DRSN OVC014 None
2017-11-17 14:00 23 18 5 79 290° 23 32 29.89 29.92 15 DRSN OVC014 None
2017-11-17 13:00 23 19 6 85 290° 26 - 29.89 29.92 10 DRSN OVC012 None
2017-11-17 12:00 25 21 9 85 280° 24 - 29.86 29.89 15 OVC012 None

Support USWX by starting your Amazon purchase here.